West Albury Real Estate, NSW, 2640 Albury

Thinking about buying in West Albury? Now could not be a better time, with a whopping 2294 properties either residential or commercial there's certainly plenty to choose from.

The average property price for this area is $408,000 with prices in this suburb ranging from $80,000 to $784,000.

Distance to the coast is 221 Km.

West Albury Real Estate Market Outlook

In West Albury there has been a history of lower than average prices and demand, offering opportunities for investors or first home owners, especially in the context of the growth in working from home. Low average incomes in West Albury is reflected in smaller and lower quality accommodation. Over time this may change providsing long-term returns but in the short to medium term, prices are likely to be less than state averages. The slightly lower than average earnings from occupations in West Albury changes the housing and lifestyle preference. It is more a matter of what can be afforded rather than what would we prefer, leading to slower price increases over time. Low population density implies low demand and limits housing choices and price increases. Could be a good entry point for first home buyers needing to somehow get into the market. Lower than average industry presence in West Albury we believe will be less of a negative impact than it has in the past. Post-COVID and the growth in working from home has lessened the demand for local employment options. This may make West Albury a better buying opportunity than it may have been in the past.

About

Properties For Sale

RayWhite 123 ELMGLADE CL, WEST ALBURY, NSW, 2640 2 1 $259,000
RayWhite 819 BLACKMORE ST, WEST ALBURY, NSW, 2640 3 1 2 $759,000

Local Schools


None within suburb boundary

(While the above schools are located with the suburb of West Albury there may also be nearby schools whose catchments cover this suburb)

Local Crime Rates


Average Local Climate by month


(mm)
RAIN
Min (°C)
TEMP
Max (°C)
TEMP
Min (%)
HUMIDITY
Max (%)
HUMIDITY
(m/sec)
WIND
(MJ/sq m)
SOLAR
Jan1.214.533.620.180.13.126.9
Feb2.014.231.428.487.42.723.4
Mar1.711.327.634.191.52.418.5
Apr1.27.123.04295.41.914.4
May1.43.517.455.998.52.09.9
Jun1.31.914.166.798.81.88.5
Jul1.61.613.169.299.22.48.4
Aug1.62.014.361.698.82.411.3
Sept1.43.417.952.798.12.616.2
Oct1.95.622.042.697.22.721.3
Nov1.28.527.328.393.83.125.1
Dec1.511.530.422.587.33.227.5

source: Australian Government Bureau of Meteorology

Recently Sold Properties / House Prices

16-05-2022 $485,000 941 PEMBERTON ST WEST ALBURY 2640
12-05-2022 $470,000 8 CHATTERTON PL WEST ALBURY 2640
09-05-2022 $290,500 4 / 496 HILL ST WEST ALBURY 2640
09-05-2022 $420,000 869 PEMBERTON ST WEST ALBURY 2640
04-05-2022 $330,000 10 HIBISCUS CRES WEST ALBURY 2640
02-05-2022 $475,000 517 HILL ST WEST ALBURY 2640
29-04-2022 $560,000 553 ROPER ST WEST ALBURY 2640
22-04-2022 $367,500 2 / 76 WESTERN VIEW DR WEST ALBURY 2640
20-04-2022 $570,000 1 / 39 FLORENCE CRES WEST ALBURY 2640
30-03-2022 $440,000 381 DAY ST WEST ALBURY 2640
29-03-2022 $241,000 6 / 881 PADMAN DR WEST ALBURY 2640
28-03-2022 $531,000 1 PRUJOY PL WEST ALBURY 2640
22-03-2022 $240,000 3 / 523 HILL ST WEST ALBURY 2640
21-03-2022 $390,000 6 BRIGGS CT WEST ALBURY 2640
18-03-2022 $665,000 1 GOULD AVE WEST ALBURY 2640
14-03-2022 $955,000 869 LAMPORT CRES WEST ALBURY 2640
10-03-2022 $360,000 2 / 14 GLENDALE AVE WEST ALBURY 2640
04-03-2022 $525,000 34 WESTERN VIEW DR WEST ALBURY 2640
04-03-2022 $312,500 898 PADMAN DR WEST ALBURY 2640
03-03-2022 $780,000 68 FLORENCE CRES WEST ALBURY 2640
02-03-2022 $560,000 1 / 11 SOUTHERN VIEW DR WEST ALBURY 2640
02-03-2022 $560,000 1 / 11 SOUTHERN VIEW DR WEST ALBURY 2640
17-02-2022 $2,102,000 1 / 2 RAMSAY PL WEST ALBURY 2640
14-02-2022 $464,000 417 SOLOMON ST WEST ALBURY 2640
03-02-2022 $180,000 1 / 93 SOUTHERN VIEW DR WEST ALBURY 2640
03-02-2022 $180,000 1 / 93 SOUTHERN VIEW DR WEST ALBURY 2640
31-01-2022 $487,500 3 QUINTON CT WEST ALBURY 2640
28-01-2022 $270,000 5 / 438 SOLOMON ST WEST ALBURY 2640
28-01-2022 $270,000 5 / 438 SOLOMON ST WEST ALBURY 2640
17-01-2022 $355,000 377 SOLOMON ST WEST ALBURY 2640
17-01-2022 $925,000 506 THOROLD ST WEST ALBURY 2640
14-01-2022 $870,000 575 MOTT ST WEST ALBURY 2640
12-01-2022 $779,000 20 JOHNSTON RD WEST ALBURY 2640
12-01-2022 $460,000 8 WESTERN VIEW DR WEST ALBURY 2640
07-01-2022 $650,000 47 WESTERN VIEW DR WEST ALBURY 2640
20-12-2021 $72,000 4 MULGA PL WEST ALBURY 2640
17-12-2021 $4,185,000 1156 PADMAN DR WEST ALBURY 2640
17-12-2021 $230,000 28 BANKSIA ST WEST ALBURY 2640
17-12-2021 $344,000 4 / 1007 PEMBERTON ST ALBURY 2640
14-12-2021 $510,000 56 WESTERN VIEW DR WEST ALBURY 2640
13-12-2021 $360,000 3 / 559 ROPER ST WEST ALBURY 2640
10-12-2021 $593,000 1 / 3 MAYNET PL WEST ALBURY 2640
10-12-2021 $593,000 1 / 3 MAYNET PL WEST ALBURY 2640
03-12-2021 $711,000 18 VALLEY VIEW DR WEST ALBURY 2640
03-12-2021 $720,000 3 KINGSLEY CT WEST ALBURY 2640
03-12-2021 $60,000 1 / 883 PADMAN DR WEST ALBURY 2640
02-12-2021 $721,000 836 BLACKMORE ST WEST ALBURY 2640
01-12-2021 $190,000 2 / 856 PADMAN DR WEST ALBURY 2640
01-12-2021 $250,000 64 SPRINGFIELD CT WEST ALBURY 2640
30-11-2021 $240,000 17 JACARANDA ST WEST ALBURY 2640

Internet Speed

  • Fibre to the Node
  • Fibre to the Premises
  • Fixed Wireless
  • Satellite

Residz covers 12m+ Australian properties and brings together a wealth of data to give you a better understanding of an area. From crime and schools to bush fire, flood risk and more. Begin your search for properties for sale or learn more about where you currently reside. Residz is an exciting next-generation Real Estate platform getting better by the day!